Time;durP1;ratioP1;P1;durP2;ratioP2;P2;SDS_P1;SDS_P2;PMS_P1;PMS_P2;Temp;Humidity;BMP_temperature;BMP_pressure;BME280_temperature;BME280_humidity;BME280_pressure;Samples;Min_cycle;Max_cycle;Signal;HPM_P1;HPM_P2
2021/04/04 00:01:16;;;;;;;4.40;2.47;;;3.20;99.90;;;;;;5028420;28;20097;-77
2021/04/04 00:03:42;;;;;;;5.32;2.72;;;3.30;99.90;;;;;;5041083;28;20099;-77
2021/04/04 00:06:07;;;;;;;3.47;2.33;;;3.30;99.90;;;;;;5025878;28;20082;-76
2021/04/04 00:08:33;;;;;;;4.13;2.58;;;3.40;99.90;;;;;;5048134;28;20105;-76
2021/04/04 00:10:59;;;;;;;4.65;2.92;;;2.90;99.90;;;;;;5047233;28;20104;-77
2021/04/04 00:13:24;;;;;;;3.85;2.38;;;2.60;99.90;;;;;;5050626;28;20570;-77
2021/04/04 00:15:50;;;;;;;4.93;3.25;;;2.80;99.90;;;;;;5033727;28;20113;-77
2021/04/04 00:18:15;;;;;;;4.95;2.90;;;3.00;99.90;;;;;;5036432;28;20185;-77
2021/04/04 00:20:41;;;;;;;3.85;2.67;;;3.30;99.90;;;;;;5030494;28;20101;-78
2021/04/04 00:23:06;;;;;;;7.35;2.70;;;3.10;99.90;;;;;;5031988;28;20073;-78
2021/04/04 00:25:32;;;;;;;5.38;2.85;;;3.10;99.90;;;;;;5030726;28;20081;-78
2021/04/04 00:27:58;;;;;;;4.30;2.47;;;3.30;99.90;;;;;;5037087;28;20078;-77
2021/04/04 00:30:24;;;;;;;5.03;2.80;;;3.00;99.90;;;;;;5046721;28;20096;-78
2021/04/04 00:32:49;;;;;;;4.88;2.22;;;2.80;99.90;;;;;;5030260;28;20080;-77
2021/04/04 00:35:20;;;;;;;5.43;2.50;;;3.20;99.90;;;;;;5033360;28;20081;-78
2021/04/04 00:37:53;;;;;;;4.30;2.35;;;3.00;99.90;;;;;;5027109;28;20101;-76
2021/04/04 00:40:24;;;;;;;3.45;2.17;;;2.80;99.90;;;;;;5046104;28;20085;-76
2021/04/04 00:42:50;;;;;;;5.30;2.25;;;2.60;99.90;;;;;;5051071;28;20080;-76
2021/04/04 00:45:22;;;;;;;4.55;2.35;;;2.70;99.90;;;;;;5029509;28;20166;-76
2021/04/04 00:47:49;;;;;;;4.90;2.70;;;2.60;99.90;;;;;;5028764;28;20672;-76
2021/04/04 00:50:16;;;;;;;5.40;2.45;;;2.70;99.90;;;;;;5047644;28;20093;-76
2021/04/04 00:52:44;;;;;;;3.50;2.10;;;2.70;99.90;;;;;;5043492;28;20085;-77
2021/04/04 00:55:11;;;;;;;6.53;2.72;;;2.60;99.90;;;;;;5049006;28;20109;-76
2021/04/04 00:57:38;;;;;;;4.53;2.67;;;2.70;99.90;;;;;;5030212;28;20104;-77
2021/04/04 01:00:14;;;;;;;4.47;2.75;;;2.80;99.90;;;;;;5044047;28;20143;-76
2021/04/04 01:02:40;;;;;;;4.65;2.45;;;3.10;99.90;;;;;;5022581;28;20589;-76
2021/04/04 01:05:09;;;;;;;5.45;2.70;;;3.00;99.90;;;;;;5042298;28;20095;-76
2021/04/04 01:07:35;;;;;;;3.75;2.58;;;2.90;99.90;;;;;;5035139;28;20173;-76
2021/04/04 01:10:07;;;;;;;4.55;2.60;;;2.90;99.90;;;;;;5040629;28;20201;-76
2021/04/04 01:12:59;;;;;;;5.97;3.30;;;2.90;99.90;;;;;;5042002;28;20164;-76
2021/04/04 01:15:31;;;;;;;6.45;2.92;;;3.00;99.90;;;;;;5017039;28;20077;-76
2021/04/04 01:18:03;;;;;;;8.60;2.80;;;3.10;99.90;;;;;;5040317;28;20093;-77
2021/04/04 01:20:34;;;;;;;6.60;2.85;;;3.10;99.90;;;;;;5024926;28;20212;-77
2021/04/04 01:23:31;;;;;;;4.07;2.75;;;3.00;99.90;;;;;;5038135;28;20078;-76
2021/04/04 01:26:09;;;;;;;3.55;2.40;;;2.80;99.90;;;;;;5049885;28;20535;-77
2021/04/04 01:28:39;;;;;;;7.72;3.25;;;2.70;99.90;;;;;;5017670;28;20088;-77
2021/04/04 01:31:07;;;;;;;4.28;2.90;;;2.70;99.90;;;;;;5042568;28;20101;-76
2021/04/04 01:33:35;;;;;;;4.68;2.55;;;2.60;99.90;;;;;;5029489;28;20076;-78
2021/04/04 01:36:03;;;;;;;4.13;2.70;;;2.70;99.90;;;;;;5045944;28;20442;-78
2021/04/04 01:38:33;;;;;;;4.00;2.55;;;2.60;99.90;;;;;;5037288;28;20098;-78
2021/04/04 01:41:21;;;;;;;3.25;2.28;;;2.60;99.90;;;;;;5030716;28;20551;-78
2021/04/04 01:43:49;;;;;;;6.68;3.10;;;2.50;99.90;;;;;;5034140;28;20160;-78
2021/04/04 01:46:15;;;;;;;6.90;2.88;;;2.50;99.90;;;;;;5040457;28;20078;-77
2021/04/04 01:48:42;;;;;;;4.47;3.33;;;2.50;99.90;;;;;;5039077;28;20083;-78
2021/04/04 01:51:10;;;;;;;5.30;2.80;;;2.80;99.90;;;;;;5040593;28;20097;-78
2021/04/04 01:53:37;;;;;;;4.70;2.92;;;2.80;99.90;;;;;;5029443;28;20086;-77
2021/04/04 01:56:03;;;;;;;8.15;3.50;;;3.10;99.90;;;;;;5030187;28;20987;-79
2021/04/04 01:58:31;;;;;;;4.75;2.80;;;2.90;99.90;;;;;;5029516;28;20129;-80
2021/04/04 02:00:57;;;;;;;6.60;3.00;;;2.90;99.90;;;;;;5024197;28;20085;-78
2021/04/04 02:03:24;;;;;;;4.45;2.70;;;3.20;99.90;;;;;;5017657;28;20455;-78
2021/04/04 02:05:51;;;;;;;5.78;2.85;;;3.30;99.90;;;;;;5026719;28;20070;-78
2021/04/04 02:08:18;;;;;;;6.20;3.08;;;3.00;99.90;;;;;;5031169;28;20074;-78
2021/04/04 02:10:44;;;;;;;4.63;2.53;;;2.70;99.90;;;;;;5040440;28;20101;-77
2021/04/04 02:13:11;;;;;;;5.28;2.53;;;2.70;99.90;;;;;;5047479;28;20084;-77
2021/04/04 02:15:37;;;;;;;4.50;3.10;;;2.80;99.90;;;;;;5028485;28;20073;-78
2021/04/04 02:18:06;;;;;;;5.32;2.85;;;2.70;99.90;;;;;;5034862;28;20165;-78
2021/04/04 02:20:33;;;;;;;8.20;3.33;;;2.50;99.90;;;;;;5049082;28;20714;-77
2021/04/04 02:23:00;;;;;;;3.38;3.00;;;2.40;99.90;;;;;;5022453;28;20078;-77
2021/04/04 02:25:26;;;;;;;5.68;2.78;;;2.40;99.90;;;;;;5042670;28;20074;-78
2021/04/04 02:27:52;;;;;;;5.03;3.10;;;2.50;99.90;;;;;;5038330;28;20114;-77
2021/04/04 02:30:18;;;;;;;4.68;2.60;;;2.40;99.90;;;;;;5048226;28;20088;-78
2021/04/04 02:33:09;;;;;;;4.90;2.70;;;2.40;99.90;;;;;;5034884;28;20105;-78
2021/04/04 02:35:37;;;;;;;4.03;2.63;;;2.70;99.90;;;;;;5036208;28;20128;-77
2021/04/04 02:38:28;;;;;;;4.60;3.47;;;2.80;99.90;;;;;;5033493;28;20555;-78
2021/04/04 02:40:55;;;;;;;5.88;2.97;;;2.70;99.90;;;;;;5033646;28;20098;-77
2021/04/04 02:43:27;;;;;;;5.38;3.03;;;2.70;99.90;;;;;;5040617;28;20065;-78
2021/04/04 02:45:55;;;;;;;5.25;3.28;;;2.70;99.90;;;;;;5040376;28;20583;-78
2021/04/04 02:48:28;;;;;;;5.75;2.67;;;2.60;99.90;;;;;;5034278;28;20082;-77
2021/04/04 02:50:59;;;;;;;5.63;3.03;;;2.70;99.90;;;;;;5037211;28;20847;-79
2021/04/04 02:53:26;;;;;;;5.72;3.08;;;2.60;99.90;;;;;;5032925;28;20253;-77
2021/04/04 02:55:54;;;;;;;3.90;2.67;;;2.50;99.90;;;;;;5045811;28;20154;-78
2021/04/04 02:58:21;;;;;;;8.43;3.05;;;2.50;99.90;;;;;;5028947;28;20085;-77
2021/04/04 03:00:47;;;;;;;5.28;3.22;;;2.30;99.90;;;;;;5045628;28;20125;-77
2021/04/04 03:03:16;;;;;;;3.55;2.75;;;2.60;99.90;;;;;;5034369;28;20066;-78
2021/04/04 03:05:43;;;;;;;5.85;2.78;;;2.30;99.90;;;;;;5056593;28;20077;-78
2021/04/04 03:08:09;;;;;;;7.55;3.70;;;2.20;99.90;;;;;;5033988;28;20097;-77
2021/04/04 03:10:36;;;;;;;6.10;2.97;;;2.20;99.90;;;;;;5026069;28;20184;-77
2021/04/04 03:13:02;;;;;;;6.47;3.10;;;2.30;99.90;;;;;;5050287;28;20626;-79
2021/04/04 03:15:29;;;;;;;5.88;3.13;;;2.30;99.90;;;;;;5044568;28;20077;-79
2021/04/04 03:17:56;;;;;;;4.93;3.25;;;2.40;99.90;;;;;;5033174;28;20560;-77
2021/04/04 03:20:22;;;;;;;5.50;2.72;;;2.30;99.90;;;;;;5048302;28;20110;-77
2021/04/04 03:22:50;;;;;;;4.28;3.15;;;2.70;99.90;;;;;;5044541;28;20085;-77
2021/04/04 03:25:18;;;;;;;3.63;2.72;;;2.40;99.90;;;;;;5049896;28;20532;-78
2021/04/04 03:27:45;;;;;;;5.95;3.30;;;2.20;99.90;;;;;;5028900;28;20535;-77
2021/04/04 03:30:35;;;;;;;6.13;3.35;;;2.30;99.90;;;;;;5036098;28;20094;-78
2021/04/04 03:33:02;;;;;;;4.35;2.65;;;2.20;99.90;;;;;;5039333;28;20447;-78
2021/04/04 03:35:29;;;;;;;3.72;3.00;;;2.20;99.90;;;;;;5051245;28;20074;-79
2021/04/04 03:37:56;;;;;;;7.40;3.22;;;2.10;99.90;;;;;;5046535;28;20092;-78
2021/04/04 03:40:21;;;;;;;4.65;2.63;;;1.90;99.90;;;;;;5035610;28;20116;-77
2021/04/04 03:42:49;;;;;;;5.75;3.28;;;1.90;99.90;;;;;;5033298;28;20105;-78
2021/04/04 03:45:17;;;;;;;6.78;3.72;;;1.90;99.90;;;;;;5032902;28;20073;-77
2021/04/04 03:47:43;;;;;;;4.57;3.42;;;2.30;99.90;;;;;;5016076;28;20074;-78
2021/04/04 03:50:10;;;;;;;6.10;3.63;;;2.10;99.90;;;;;;5042129;28;20093;-77
2021/04/04 03:52:38;;;;;;;6.07;3.35;;;2.20;99.90;;;;;;5041255;28;20081;-77
2021/04/04 03:55:05;;;;;;;7.00;3.95;;;2.20;99.90;;;;;;5039372;28;20161;-77
2021/04/04 03:57:32;;;;;;;6.63;3.53;;;2.40;99.90;;;;;;5013732;28;20090;-78
2021/04/04 04:00:00;;;;;;;9.40;3.50;;;2.40;99.90;;;;;;5042025;28;20089;-77
2021/04/04 04:02:26;;;;;;;7.35;3.30;;;2.50;99.90;;;;;;5051846;28;20066;-77
2021/04/04 04:04:54;;;;;;;9.18;4.20;;;2.20;99.90;;;;;;5040950;28;20070;-77
2021/04/04 04:07:21;;;;;;;5.38;3.20;;;2.20;99.90;;;;;;5031745;28;20552;-77
2021/04/04 04:09:47;;;;;;;5.35;3.30;;;2.30;99.90;;;;;;5037675;28;20143;-77
2021/04/04 04:12:14;;;;;;;4.85;3.65;;;2.60;99.90;;;;;;5049810;28;20073;-77
2021/04/04 04:14:41;;;;;;;6.93;3.22;;;2.50;99.90;;;;;;5027810;28;20117;-77
2021/04/04 04:17:06;;;;;;;5.03;2.78;;;2.10;99.90;;;;;;5031723;28;20188;-77
2021/04/04 04:19:32;;;;;;;5.90;3.38;;;1.70;99.90;;;;;;5038979;28;20100;-77
2021/04/04 04:21:58;;;;;;;5.07;3.20;;;1.30;99.90;;;;;;5046591;28;20074;-77
2021/04/04 04:24:24;;;;;;;8.75;3.88;;;1.10;99.90;;;;;;5049532;28;20067;-78
2021/04/04 04:26:50;;;;;;;7.95;3.17;;;0.90;99.90;;;;;;5050932;28;20160;-77
2021/04/04 04:29:18;;;;;;;5.28;3.42;;;0.80;99.90;;;;;;5032913;28;20491;-78
2021/04/04 04:31:47;;;;;;;6.50;3.50;;;0.80;99.90;;;;;;5030946;28;20432;-77
2021/04/04 04:34:13;;;;;;;8.45;3.58;;;1.10;99.90;;;;;;5052953;28;20127;-76
2021/04/04 04:36:40;;;;;;;7.07;3.22;;;1.50;99.90;;;;;;5038048;28;20188;-78
2021/04/04 04:39:09;;;;;;;7.32;3.58;;;1.90;99.90;;;;;;5039879;28;20107;-77
2021/04/04 04:41:37;;;;;;;5.93;3.30;;;1.60;99.90;;;;;;5022178;28;20096;-77
2021/04/04 04:44:05;;;;;;;7.13;3.65;;;1.40;99.90;;;;;;5035566;28;20120;-77
2021/04/04 04:46:32;;;;;;;5.90;3.90;;;1.30;99.90;;;;;;5030649;28;20078;-77
2021/04/04 04:49:00;;;;;;;9.80;3.53;;;1.10;99.90;;;;;;5036765;28;20074;-78
2021/04/04 04:51:25;;;;;;;6.38;3.40;;;1.00;99.90;;;;;;5044522;28;20086;-78
2021/04/04 04:53:51;;;;;;;6.55;4.00;;;1.00;99.90;;;;;;5030484;28;20074;-78
2021/04/04 04:56:18;;;;;;;6.90;3.90;;;1.10;99.90;;;;;;5033479;28;20080;-77
2021/04/04 04:58:44;;;;;;;5.85;3.85;;;1.00;99.90;;;;;;5032576;28;20090;-78
2021/04/04 05:01:24;;;;;;;6.13;3.67;;;1.00;99.90;;;;;;5047894;28;20090;-77
2021/04/04 05:03:49;;;;;;;4.65;3.40;;;1.00;99.90;;;;;;5037327;28;20152;-78
2021/04/04 05:06:17;;;;;;;3.80;3.25;;;1.10;99.90;;;;;;5053154;28;20148;-78
2021/04/04 05:08:44;;;;;;;8.13;4.03;;;1.00;99.90;;;;;;5035478;28;20830;-77
2021/04/04 05:11:14;;;;;;;5.78;3.45;;;1.00;99.90;;;;;;5032801;28;20099;-78
2021/04/04 05:13:41;;;;;;;4.78;3.17;;;1.10;99.90;;;;;;5050393;28;20123;-80
2021/04/04 05:16:11;;;;;;;5.65;3.45;;;0.90;99.90;;;;;;5031859;28;20172;-77
2021/04/04 05:18:47;;;;;;;6.43;3.80;;;0.60;99.90;;;;;;5044278;28;20097;-78
2021/04/04 05:21:24;;;;;;;6.53;3.67;;;0.80;99.90;;;;;;5044532;28;20097;-77
2021/04/04 05:23:57;;;;;;;8.52;4.68;;;1.20;99.90;;;;;;5040739;28;20526;-78
2021/04/04 05:26:25;;;;;;;6.32;3.65;;;1.20;99.90;;;;;;5018526;28;20108;-78
2021/04/04 05:28:52;;;;;;;5.28;3.40;;;1.20;99.90;;;;;;5031580;28;20168;-78
2021/04/04 05:31:19;;;;;;;7.65;4.40;;;1.00;99.90;;;;;;5041440;28;20112;-77
2021/04/04 05:33:44;;;;;;;5.70;3.38;;;0.80;99.90;;;;;;5049964;28;20610;-77
2021/04/04 05:36:10;;;;;;;6.32;3.58;;;1.00;99.90;;;;;;5050745;28;20081;-78
2021/04/04 05:38:35;;;;;;;3.88;3.33;;;1.40;99.90;;;;;;5038101;28;20570;-77
2021/04/04 05:41:02;;;;;;;6.72;3.55;;;1.40;99.90;;;;;;5032731;28;20093;-78
2021/04/04 05:43:35;;;;;;;5.65;3.75;;;1.40;99.90;;;;;;5033291;28;20173;-77
2021/04/04 05:46:32;;;;;;;6.53;4.57;;;1.30;99.90;;;;;;5034477;28;20124;-78
2021/04/04 05:49:17;;;;;;;7.70;4.90;;;1.50;99.90;;;;;;5021796;28;20089;-78
2021/04/04 05:52:15;;;;;;;8.20;3.75;;;1.50;99.90;;;;;;5042958;28;20074;-77
2021/04/04 05:54:58;;;;;;;8.00;3.25;;;1.60;99.90;;;;;;5038416;28;20165;-77
2021/04/04 05:57:32;;;;;;;5.22;3.45;;;1.60;99.90;;;;;;5027512;28;20172;-77
2021/04/04 06:00:02;;;;;;;5.38;3.50;;;1.70;99.90;;;;;;5039525;28;20124;-77
2021/04/04 06:02:48;;;;;;;6.65;3.22;;;1.60;99.90;;;;;;5048130;28;20073;-78
2021/04/04 06:05:50;;;;;;;7.25;4.10;;;1.30;99.90;;;;;;5040708;28;20070;-77
2021/04/04 06:08:36;;;;;;;5.68;3.97;;;1.20;99.90;;;;;;5039197;28;20615;-79
2021/04/04 06:11:15;;;;;;;8.48;3.88;;;1.10;99.90;;;;;;5030109;28;20184;-77
2021/04/04 06:14:07;;;;;;;6.53;3.75;;;1.30;99.90;;;;;;5030432;28;20127;-77
2021/04/04 06:16:41;;;;;;;6.90;3.83;;;1.60;99.90;;;;;;5046074;28;20085;-78
2021/04/04 06:19:20;;;;;;;5.95;3.75;;;1.80;99.90;;;;;;5032015;28;20141;-80
2021/04/04 06:21:59;;;;;;;6.72;4.18;;;1.90;99.90;;;;;;5029862;28;20526;-77
2021/04/04 06:24:52;;;;;;;5.57;3.45;;;2.10;99.90;;;;;;5036482;28;20112;-77
2021/04/04 06:27:51;;;;;;;11.93;4.43;;;2.20;99.90;;;;;;5021449;28;20084;-78
2021/04/04 06:30:46;;;;;;;6.18;4.13;;;2.20;99.90;;;;;;5042078;28;20100;-77
2021/04/04 06:33:33;;;;;;;7.55;5.38;;;2.40;99.90;;;;;;5034502;28;20142;-78
2021/04/04 06:36:09;;;;;;;13.38;5.57;;;2.70;99.90;;;;;;5030592;28;20113;-76
2021/04/04 06:39:06;;;;;;;8.30;5.30;;;2.80;99.90;;;;;;5041303;28;20085;-77
2021/04/04 06:41:49;;;;;;;10.48;4.72;;;2.90;99.90;;;;;;5038639;28;20165;-78
2021/04/04 06:44:56;;;;;;;11.40;5.72;;;3.00;99.90;;;;;;5028521;28;20069;-77
2021/04/04 06:47:44;;;;;;;9.43;5.35;;;3.10;99.90;;;;;;5031512;28;20085;-77
2021/04/04 06:50:18;;;;;;;8.90;4.80;;;3.20;99.90;;;;;;5039443;28;20116;-79
2021/04/04 06:53:18;;;;;;;6.82;4.72;;;3.40;99.90;;;;;;5032252;28;20065;-77
2021/04/04 06:56:14;;;;;;;11.13;5.38;;;3.60;99.90;;;;;;5038972;28;20101;-77
2021/04/04 06:58:50;;;;;;;8.00;5.03;;;3.70;99.90;;;;;;5041722;28;20124;-78
2021/04/04 07:01:40;;;;;;;9.85;5.80;;;3.80;99.90;;;;;;5033499;28;20168;-77
2021/04/04 07:04:29;;;;;;;8.63;5.53;;;3.90;99.90;;;;;;5041178;28;20085;-77
2021/04/04 07:07:20;;;;;;;6.75;4.35;;;4.10;99.90;;;;;;5036640;28;20105;-77
2021/04/04 07:09:59;;;;;;;12.07;6.18;;;4.20;99.90;;;;;;5034006;28;20159;-77
2021/04/04 07:12:56;;;;;;;11.93;5.53;;;4.30;99.90;;;;;;5047731;28;20726;-78
2021/04/04 07:15:34;;;;;;;8.00;5.28;;;4.50;99.90;;;;;;5040253;28;20078;-80
2021/04/04 07:18:06;;;;;;;8.90;5.47;;;4.70;99.90;;;;;;5049899;28;20093;-78
2021/04/04 07:20:47;;;;;;;7.47;5.53;;;4.80;99.90;;;;;;5037860;28;20093;-77
2021/04/04 07:23:12;;;;;;;7.43;4.30;;;5.00;99.90;;;;;;5033671;28;20135;-77
2021/04/04 07:25:55;;;;;;;8.32;4.22;;;5.00;99.90;;;;;;5038582;28;20515;-77
2021/04/04 07:29:07;;;;;;;8.15;2.85;;;5.00;99.90;;;;;;5051923;28;20109;-78
2021/04/04 07:31:41;;;;;;;3.80;2.28;;;5.10;99.90;;;;;;5039196;28;20121;-77
2021/04/04 07:34:07;;;;;;;;;;;5.50;98.40;;;;;;5034209;28;20116;-78
2021/04/04 07:36:54;;;;;;;3.88;1.60;;;5.60;96.50;;;;;;5025701;28;19957;-77
2021/04/04 07:39:38;;;;;;;3.13;1.13;;;6.00;95.00;;;;;;5032406;28;20445;-78
2021/04/04 07:42:32;;;;;;;7.95;1.42;;;6.10;93.20;;;;;;5046788;28;20077;-78
2021/04/04 07:45:16;;;;;;;5.43;1.58;;;6.20;91.20;;;;;;5040424;28;20128;-78
2021/04/04 07:48:06;;;;;;;2.83;1.42;;;6.20;93.10;;;;;;5040824;28;20608;-78
2021/04/04 07:50:40;;;;;;;4.50;1.85;;;6.40;94.90;;;;;;5045121;28;20523;-77
2021/04/04 07:53:18;;;;;;;3.15;1.92;;;6.50;94.40;;;;;;5044628;28;20231;-76
2021/04/04 07:56:02;;;;;;;3.72;1.92;;;6.80;92.70;;;;;;5031805;28;20081;-77
2021/04/04 07:58:37;;;;;;;3.85;2.97;;;6.90;92.50;;;;;;5035357;28;20096;-76
2021/04/04 08:01:06;;;;;;;;;;;6.90;93.30;;;;;;5046949;28;20174;-76
2021/04/04 08:04:00;;;;;;;3.22;1.83;;;6.90;93.50;;;;;;5016513;28;20004;-76
2021/04/04 08:06:35;;;;;;;3.83;1.95;;;6.90;94.10;;;;;;5043013;28;20155;-78
2021/04/04 08:09:11;;;;;;;4.10;1.55;;;7.00;94.80;;;;;;5033213;28;20069;-79
2021/04/04 08:11:54;;;;;;;2.40;1.63;;;6.90;88.80;;;;;;5030677;28;20070;-78
2021/04/04 08:14:42;;;;;;;3.95;1.35;;;6.90;88.00;;;;;;5033541;28;20157;-77
2021/04/04 08:17:09;;;;;;;4.78;1.40;;;6.60;87.50;;;;;;5048720;28;20143;-78
2021/04/04 08:19:34;;;;;;;5.03;2.17;;;6.50;88.50;;;;;;5036722;28;20512;-78
2021/04/04 08:22:10;;;;;;;4.03;1.60;;;6.60;89.30;;;;;;5048763;28;20100;-78
2021/04/04 08:24:35;;;;;;;3.50;1.45;;;6.70;89.00;;;;;;5052649;28;20156;-78
2021/04/04 08:27:10;;;;;;;4.28;1.50;;;6.60;88.10;;;;;;5052090;28;20104;-78
2021/04/04 08:29:41;;;;;;;3.72;1.40;;;6.80;89.70;;;;;;5033536;28;20613;-77
2021/04/04 08:32:14;;;;;;;4.03;1.63;;;7.00;89.50;;;;;;5024353;28;20089;-77
2021/04/04 08:34:49;;;;;;;2.55;2.35;;;7.20;89.50;;;;;;5043256;28;20093;-77
2021/04/04 08:37:24;;;;;;;4.88;1.63;;;7.20;88.80;;;;;;5032213;28;20085;-77
2021/04/04 08:39:57;;;;;;;3.45;1.83;;;7.20;82.90;;;;;;5047430;28;20119;-77
2021/04/04 08:42:23;;;;;;;5.03;1.25;;;7.20;88.40;;;;;;5031265;28;20108;-78
2021/04/04 08:44:51;;;;;;;3.25;1.80;;;7.40;87.10;;;;;;5031504;28;20634;-77
2021/04/04 08:47:29;;;;;;;3.05;1.80;;;7.30;84.00;;;;;;5031455;28;20109;-77
2021/04/04 08:49:57;;;;;;;2.25;1.48;;;7.40;84.70;;;;;;5034202;28;20630;-77
2021/04/04 08:52:34;;;;;;;1.83;1.35;;;7.50;83.50;;;;;;5041674;28;20089;-81
2021/04/04 08:55:00;;;;;;;2.58;1.55;;;7.40;83.20;;;;;;5029190;28;20099;-81
2021/04/04 08:57:37;;;;;;;4.45;1.83;;;7.20;80.50;;;;;;5034968;28;20144;-79
2021/04/04 09:00:12;;;;;;;2.53;1.92;;;7.10;81.40;;;;;;5016989;28;20089;-81
2021/04/04 09:02:59;;;;;;;4.70;1.65;;;7.00;80.40;;;;;;5020215;28;20132;-82
2021/04/04 09:05:26;;;;;;;2.67;1.30;;;6.90;79.00;;;;;;5035957;28;20070;-83
2021/04/04 09:07:55;;;;;;;2.25;1.60;;;7.00;80.30;;;;;;5032856;28;20111;-80
2021/04/04 09:10:23;;;;;;;3.08;1.65;;;7.00;77.60;;;;;;5052969;28;20093;-80
2021/04/04 09:12:49;;;;;;;3.55;1.63;;;7.00;76.80;;;;;;5032793;28;20074;-81
2021/04/04 09:15:16;;;;;;;1.40;1.05;;;7.00;78.10;;;;;;5031772;28;20160;-79
2021/04/04 09:18:08;;;;;;;2.13;1.45;;;7.60;83.40;;;;;;5018392;28;20086;-79
2021/04/04 09:20:43;;;;;;;3.38;1.30;;;7.80;79.10;;;;;;5014315;28;20108;-79
2021/04/04 09:23:10;;;;;;;3.53;1.40;;;8.00;80.60;;;;;;5047857;28;20081;-78
2021/04/04 09:25:46;;;;;;;4.18;1.40;;;8.10;80.10;;;;;;5044334;28;20093;-80
2021/04/04 09:28:12;;;;;;;3.47;1.70;;;8.20;77.90;;;;;;5041170;28;20750;-79
2021/04/04 09:30:44;;;;;;;4.80;2.05;;;8.00;73.20;;;;;;5017339;28;20116;-78
2021/04/04 09:33:13;;;;;;;2.72;1.55;;;8.00;72.80;;;;;;5044340;28;20160;-79
2021/04/04 09:35:40;;;;;;;3.72;1.23;;;7.80;70.20;;;;;;5052060;28;20092;-79
2021/04/04 09:38:10;;;;;;;3.75;2.45;;;7.70;70.60;;;;;;5051674;28;20501;-76
2021/04/04 09:40:37;;;;;;;2.22;1.20;;;7.50;71.20;;;;;;5041022;28;20090;-76
2021/04/04 09:43:11;;;;;;;3.63;1.70;;;7.30;71.10;;;;;;5040396;28;20076;-79
2021/04/04 09:45:38;;;;;;;4.63;1.60;;;7.30;72.30;;;;;;5044378;28;20065;-79
2021/04/04 09:48:17;;;;;;;4.50;1.40;;;7.40;74.70;;;;;;5034116;28;20079;-80
2021/04/04 09:50:43;;;;;;;3.40;1.60;;;7.40;74.60;;;;;;5038457;28;20089;-78
2021/04/04 09:53:09;;;;;;;2.80;1.50;;;7.60;75.20;;;;;;5044689;28;20542;-80
2021/04/04 09:55:34;;;;;;;2.13;1.35;;;7.70;74.60;;;;;;5025867;28;20073;-80
2021/04/04 09:58:01;;;;;;;2.60;1.83;;;7.90;74.00;;;;;;5024052;28;20093;-79
2021/04/04 10:00:28;;;;;;;3.45;1.70;;;7.70;72.40;;;;;;5031890;28;20192;-78
2021/04/04 10:02:56;;;;;;;3.50;1.30;;;7.70;71.30;;;;;;5039564;28;20463;-78
2021/04/04 10:05:29;;;;;;;2.83;1.40;;;7.70;71.90;;;;;;5050808;28;20073;-79
2021/04/04 10:07:54;;;;;;;3.78;1.70;;;7.80;72.60;;;;;;5038549;28;20082;-79
2021/04/04 10:10:30;;;;;;;3.58;1.70;;;8.20;73.20;;;;;;5025846;28;20081;-79
2021/04/04 10:12:58;;;;;;;4.75;1.80;;;8.50;74.10;;;;;;5032035;28;20074;-78
2021/04/04 10:15:23;;;;;;;2.95;1.92;;;8.30;71.40;;;;;;5034181;28;20084;-79
2021/04/04 10:17:58;;;;;;;3.03;1.45;;;8.30;71.70;;;;;;5030468;28;20089;-79
2021/04/04 10:20:32;;;;;;;2.35;1.75;;;8.10;71.10;;;;;;5024187;28;20579;-79
2021/04/04 10:22:58;;;;;;;4.85;2.67;;;8.20;72.50;;;;;;5039453;28;20084;-78
2021/04/04 10:25:24;;;;;;;5.15;2.47;;;8.10;72.30;;;;;;5029885;28;20078;-80
2021/04/04 10:28:16;;;;;;;4.38;1.60;;;8.30;72.70;;;;;;5031023;28;20121;-79
2021/04/04 10:30:42;;;;;;;2.65;1.40;;;8.30;72.00;;;;;;5024241;28;20236;-79
2021/04/04 10:33:19;;;;;;;3.03;1.73;;;8.20;74.20;;;;;;5034127;28;20123;-79
2021/04/04 10:35:45;;;;;;;5.55;2.05;;;8.00;72.40;;;;;;5017836;28;20077;-77
2021/04/04 10:38:14;;;;;;;4.57;2.00;;;8.10;72.00;;;;;;5030048;28;20097;-78
2021/04/04 10:40:46;;;;;;;2.85;1.55;;;8.00;70.30;;;;;;5037454;28;20169;-80
2021/04/04 10:43:16;;;;;;;3.92;2.63;;;7.80;69.40;;;;;;5027332;28;20128;-78
2021/04/04 10:46:02;;;;;;;5.47;2.38;;;8.00;68.30;;;;;;5037159;28;20542;-78
2021/04/04 10:48:30;;;;;;;4.60;1.45;;;8.20;68.40;;;;;;5043525;28;20078;-79
2021/04/04 10:50:58;;;;;;;3.15;2.85;;;8.30;66.40;;;;;;5043858;28;20104;-77
2021/04/04 10:53:24;;;;;;;3.88;1.85;;;8.50;72.30;;;;;;5030139;28;20077;-78
2021/04/04 10:55:50;;;;;;;4.80;2.00;;;8.50;68.90;;;;;;5042641;28;20080;-79
2021/04/04 10:58:27;;;;;;;2.50;1.90;;;8.40;66.90;;;;;;5057575;28;20088;-77
2021/04/04 11:00:55;;;;;;;8.65;3.80;;;8.50;67.70;;;;;;5025273;28;20096;-80
2021/04/04 11:03:21;;;;;;;18.77;7.55;;;8.50;66.80;;;;;;5018460;28;20074;-79
2021/04/04 11:05:48;;;;;;;19.50;9.25;;;8.50;66.00;;;;;;5055912;28;20073;-80
2021/04/04 11:08:14;;;;;;;11.00;4.38;;;8.40;66.70;;;;;;5026993;28;20100;-80
2021/04/04 11:10:40;;;;;;;4.55;2.05;;;8.90;69.80;;;;;;5049145;28;20097;-78
2021/04/04 11:13:06;;;;;;;5.75;2.55;;;8.90;66.30;;;;;;5031271;28;20090;-80
2021/04/04 11:15:38;;;;;;;2.85;1.75;;;8.80;65.60;;;;;;5038860;28;20107;-77
2021/04/04 11:18:13;;;;;;;5.38;2.40;;;8.50;65.70;;;;;;5049512;28;20120;-79
2021/04/04 11:20:42;;;;;;;4.85;1.83;;;8.30;64.80;;;;;;5032511;28;20184;-79
2021/04/04 11:23:10;;;;;;;3.40;2.45;;;8.20;66.10;;;;;;5019588;28;20221;-81
2021/04/04 11:25:36;;;;;;;4.30;1.70;;;8.40;71.20;;;;;;5028134;28;20074;-80
2021/04/04 11:28:15;;;;;;;5.95;2.10;;;8.60;70.40;;;;;;5026953;28;20104;-79
2021/04/04 11:30:49;;;;;;;1.98;1.50;;;8.60;64.60;;;;;;5049544;28;20089;-79
2021/04/04 11:33:25;;;;;;;1.80;1.30;;;8.60;62.70;;;;;;5028445;28;20078;-81
2021/04/04 11:36:07;;;;;;;1.98;1.38;;;8.80;61.00;;;;;;5045349;28;20180;-81
2021/04/04 11:38:52;;;;;;;3.78;2.17;;;8.70;58.40;;;;;;5035775;28;20089;-80
2021/04/04 11:41:27;;;;;;;2.80;1.65;;;8.60;59.80;;;;;;5029177;28;20086;-81
2021/04/04 11:43:55;;;;;;;;;;;8.70;60.30;;;;;;5035164;28;20073;-83
2021/04/04 11:46:41;;;;;;;3.28;1.83;;;8.50;59.20;;;;;;5027956;28;20039;-80
2021/04/04 11:49:38;;;;;;;3.00;1.42;;;8.50;58.50;;;;;;5033698;28;20085;-80
2021/04/04 11:52:10;;;;;;;2.15;1.60;;;8.60;62.70;;;;;;5012820;28;20085;-81
2021/04/04 11:54:45;;;;;;;5.13;1.83;;;8.80;60.70;;;;;;5044734;28;20076;-82
2021/04/04 11:57:26;;;;;;;;;;;8.80;60.80;;;;;;5033396;28;20089;-79
2021/04/04 12:00:02;;;;;;;3.25;1.85;;;8.80;60.40;;;;;;5041652;28;20068;-81
2021/04/04 12:02:29;;;;;;;3.42;1.70;;;8.70;60.10;;;;;;5033025;28;20088;-81
2021/04/04 12:05:04;;;;;;;3.13;1.63;;;8.80;63.80;;;;;;5034931;28;20093;-77
2021/04/04 12:07:30;;;;;;;2.40;1.38;;;9.20;63.40;;;;;;5028573;28;20129;-79
2021/04/04 12:09:57;;;;;;;6.72;1.67;;;9.10;61.50;;;;;;5036320;28;20094;-79
2021/04/04 12:12:23;;;;;;;3.22;1.42;;;9.10;60.10;;;;;;5042678;28;20077;-79
2021/04/04 12:14:54;;;;;;;2.42;1.52;;;9.00;61.50;;;;;;5023237;28;20078;-78
2021/04/04 12:17:21;;;;;;;2.88;1.58;;;9.10;61.00;;;;;;5026958;28;20097;-78
2021/04/04 12:19:47;;;;;;;2.70;1.92;;;9.00;60.00;;;;;;5052547;28;20193;-79
2021/04/04 12:22:15;;;;;;;3.35;1.58;;;9.00;64.40;;;;;;5041408;28;20105;-79
2021/04/04 12:24:46;;;;;;;4.70;2.08;;;9.10;67.50;;;;;;5043755;28;20601;-80
2021/04/04 12:27:14;;;;;;;3.15;1.70;;;9.10;60.50;;;;;;5031661;28;20563;-80
2021/04/04 12:29:47;;;;;;;3.67;2.35;;;9.00;60.20;;;;;;5027680;28;20559;-80
2021/04/04 12:32:24;;;;;;;2.97;1.63;;;9.20;57.50;;;;;;5048208;28;20077;-81
2021/04/04 12:34:55;;;;;;;3.05;1.85;;;9.00;55.90;;;;;;5045505;28;20081;-81
2021/04/04 12:37:23;;;;;;;4.28;2.00;;;8.90;57.90;;;;;;5031143;28;20086;-80
2021/04/04 12:39:50;;;;;;;3.78;1.45;;;9.10;64.10;;;;;;5034749;28;20093;-77
2021/04/04 12:42:18;;;;;;;2.70;1.63;;;9.00;58.50;;;;;;5047608;28;20073;-78
2021/04/04 12:44:47;;;;;;;3.00;1.60;;;9.30;64.80;;;;;;5031039;28;20085;-79
2021/04/04 12:47:18;;;;;;;2.72;1.75;;;9.40;64.80;;;;;;5032965;28;20070;-77
2021/04/04 12:49:52;;;;;;;4.93;2.10;;;9.40;58.40;;;;;;5019541;28;20097;-78
2021/04/04 12:52:32;;;;;;;2.38;1.77;;;9.30;59.70;;;;;;5048886;28;20081;-79
2021/04/04 12:55:08;;;;;;;3.78;1.67;;;9.10;60.30;;;;;;5040487;28;20168;-79
2021/04/04 12:57:34;;;;;;;4.05;1.83;;;9.10;60.70;;;;;;5055834;28;20124;-79
2021/04/04 12:59:59;;;;;;;5.60;2.00;;;9.20;61.30;;;;;;5046873;28;20082;-78
2021/04/04 13:02:25;;;;;;;5.78;2.35;;;9.40;63.30;;;;;;5032936;28;20074;-78
2021/04/04 13:04:57;;;;;;;4.03;1.88;;;9.50;58.70;;;;;;5049811;28;20073;-78
2021/04/04 13:07:23;;;;;;;3.72;1.58;;;9.50;57.80;;;;;;5024417;28;20085;-79
2021/04/04 13:09:48;;;;;;;3.85;2.30;;;9.40;59.10;;;;;;5037154;28;20089;-78
2021/04/04 13:12:14;;;;;;;4.28;1.90;;;9.90;67.20;;;;;;5045309;28;20073;-79
2021/04/04 13:14:40;;;;;;;3.45;1.80;;;9.90;64.50;;;;;;5056481;28;20108;-79
2021/04/04 13:17:05;;;;;;;3.55;2.00;;;9.80;66.90;;;;;;5059445;28;20078;-80
2021/04/04 13:19:39;;;;;;;2.47;1.80;;;9.90;65.40;;;;;;5043508;28;20192;-80
2021/04/04 13:22:07;;;;;;;5.33;2.17;;;10.10;65.00;;;;;;5040617;28;20088;-80
2021/04/04 13:24:33;;;;;;;2.72;1.88;;;10.10;63.30;;;;;;5035444;28;20142;-79